createdAt,value
2019-04-14T00:04:59.340Z,25.02
2019-04-14T00:10:02.864Z,24.60
2019-04-14T00:15:20.132Z,23.98
2019-04-14T00:20:11.867Z,27.10
2019-04-14T00:25:13.729Z,24.10
2019-04-14T00:30:17.229Z,24.02
2019-04-14T00:35:23.624Z,23.92
2019-04-14T00:40:29.593Z,24.30
2019-04-14T00:45:41.560Z,23.25
2019-04-14T00:50:36.593Z,23.02
2019-04-14T00:55:38.399Z,22.55
2019-04-14T01:00:40.860Z,23.55
2019-04-14T01:05:43.696Z,22.05
2019-04-14T01:10:45.466Z,22.52
2019-04-14T01:15:57.847Z,20.10
2019-04-14T01:20:51.411Z,22.67
2019-04-14T01:25:54.293Z,21.57
2019-04-14T01:30:56.602Z,21.02
2019-04-14T01:35:59.513Z,20.95
2019-04-14T01:41:02.135Z,19.82
2019-04-14T01:46:11.669Z,19.80
2019-04-14T01:51:13.315Z,19.80
2019-04-14T01:56:20.973Z,22.63
2019-04-14T02:01:26.065Z,20.68
2019-04-14T02:06:28.927Z,18.95
2019-04-14T02:11:31.359Z,18.25
2019-04-14T02:16:40.179Z,18.10
2019-04-14T02:21:36.778Z,17.70
2019-04-14T02:26:39.423Z,19.05
2019-04-14T02:32:13.724Z,19.07
2019-04-14T02:37:12.448Z,20.57
2019-04-14T02:47:36.860Z,19.02
2019-04-14T02:52:24.000Z,17.25
2019-04-14T02:57:24.245Z,16.80
2019-04-14T03:02:29.588Z,18.17
2019-04-14T03:07:40.287Z,17.02
2019-04-14T03:12:51.031Z,16.42
2019-04-14T03:22:49.808Z,17.65
2019-04-14T03:43:33.793Z,15.98
2019-04-14T03:48:34.459Z,15.55
2019-04-14T03:53:19.109Z,15.00
2019-04-14T03:57:47.645Z,14.55
2019-04-14T04:02:49.333Z,15.60
2019-04-14T04:07:51.746Z,15.18
2019-04-14T04:12:53.670Z,14.58
2019-04-14T04:17:58.036Z,13.70
2019-04-14T04:23:03.008Z,13.35
2019-04-14T04:28:07.841Z,13.40
2019-04-14T04:33:10.706Z,15.10
2019-04-14T04:38:13.798Z,11.53
2019-04-14T04:43:16.739Z,13.08
2019-04-14T04:48:19.658Z,11.25
2019-04-14T04:53:22.358Z,12.05
2019-04-14T04:58:24.186Z,12.78
2019-04-14T05:03:25.749Z,12.55
2019-04-14T05:08:28.320Z,13.08
2019-04-14T05:13:32.063Z,11.88
2019-04-14T05:18:33.662Z,12.47
2019-04-14T05:23:36.620Z,13.28
2019-04-14T05:28:39.532Z,13.43
2019-04-14T05:33:42.502Z,12.25
2019-04-14T05:38:45.031Z,14.45
2019-04-14T05:43:52.023Z,11.68
2019-04-14T05:48:51.336Z,15.43
2019-04-14T05:53:54.415Z,9.53
2019-04-14T05:58:56.335Z,10.28
2019-04-14T06:03:58.239Z,14.03
2019-04-14T06:08:59.983Z,11.78
2019-04-14T06:14:03.259Z,12.33
2019-04-14T06:19:05.066Z,11.57
2019-04-14T06:24:06.839Z,13.53
2019-04-14T06:29:09.626Z,9.00
2019-04-14T06:34:11.307Z,9.95
2019-04-14T06:39:27.112Z,11.30
2019-04-14T06:44:28.791Z,12.78
2019-04-14T06:49:30.461Z,11.03
2019-04-14T06:54:32.217Z,13.83
2019-04-14T06:59:33.778Z,12.40
2019-04-14T07:04:35.545Z,14.63
2019-04-14T07:09:37.238Z,15.80
2019-04-14T07:14:38.799Z,17.30
2019-04-14T07:19:40.474Z,18.45
2019-04-14T07:24:42.042Z,14.43
2019-04-14T07:29:51.498Z,16.62
2019-04-14T07:34:55.728Z,12.95
2019-04-14T07:40:09.382Z,14.28
2019-04-14T07:45:11.048Z,16.57
2019-04-14T07:50:31.151Z,16.77
2019-04-14T07:55:38.763Z,24.57
2019-04-14T08:00:40.392Z,14.75
2019-04-14T08:05:43.945Z,17.05
2019-04-14T08:10:45.838Z,17.95
2019-04-14T08:15:48.614Z,14.58
2019-04-14T08:20:50.308Z,9.23
2019-04-14T08:25:52.055Z,15.05
2019-04-14T08:30:53.735Z,21.07
2019-04-14T08:35:56.016Z,16.45
2019-04-14T08:40:57.691Z,15.83
2019-04-14T08:46:08.985Z,37.67
2019-04-14T08:51:15.573Z,33.38
2019-04-14T08:56:27.385Z,44.03
2019-04-14T09:01:35.298Z,40.03
2019-04-14T09:06:38.848Z,35.75
2019-04-14T09:11:51.051Z,40.40
2019-04-14T09:16:52.905Z,33.65
2019-04-14T09:21:54.577Z,30.92
2019-04-14T09:26:56.247Z,34.78
2019-04-14T09:31:58.430Z,27.07
2019-04-14T09:37:00.100Z,30.10
2019-04-14T09:42:01.671Z,30.25
2019-04-14T09:47:03.341Z,31.80
2019-04-14T09:52:05.974Z,34.10
2019-04-14T09:57:07.808Z,28.10
2019-04-14T10:02:09.471Z,28.65
2019-04-14T10:07:11.210Z,22.70
2019-04-14T10:12:13.020Z,24.15
2019-04-14T10:17:15.119Z,24.80
2019-04-14T10:22:17.178Z,26.75
2019-04-14T10:27:18.739Z,21.80
2019-04-14T10:32:20.434Z,18.90
2019-04-14T10:37:22.090Z,27.17
2019-04-14T10:42:23.767Z,26.37
2019-04-14T10:47:25.476Z,22.13
2019-04-14T10:52:27.316Z,24.00
2019-04-14T10:57:28.903Z,24.18
2019-04-14T11:02:30.554Z,23.05
2019-04-14T11:07:32.127Z,21.85
2019-04-14T11:12:33.782Z,26.12
2019-04-14T11:17:35.466Z,22.00
2019-04-14T11:22:37.227Z,22.60
2019-04-14T11:27:38.794Z,18.73
2019-04-14T11:32:40.337Z,23.20
2019-04-14T11:37:44.539Z,20.65
2019-04-14T11:42:52.410Z,23.12
2019-04-14T11:47:50.601Z,19.90
2019-04-14T11:52:53.404Z,16.52
2019-04-14T11:57:55.130Z,19.82
2019-04-14T12:03:04.016Z,17.67
2019-04-14T12:08:06.302Z,20.67
2019-04-14T12:13:08.280Z,13.30
2019-04-14T12:18:10.052Z,15.18
2019-04-14T12:23:11.621Z,16.25
2019-04-14T12:28:13.574Z,19.40
2019-04-14T12:33:15.263Z,16.05
2019-04-14T12:38:16.940Z,15.85
2019-04-14T12:43:37.546Z,22.10
2019-04-14T12:48:41.183Z,16.35
2019-04-14T12:53:43.551Z,21.95
2019-04-14T12:58:47.801Z,18.57
2019-04-14T13:03:49.767Z,18.73
2019-04-14T13:08:51.636Z,17.77
2019-04-14T13:13:53.313Z,20.77
2019-04-14T13:18:54.876Z,21.57
2019-04-14T13:23:56.450Z,23.70
2019-04-14T13:28:58.224Z,19.50
2019-04-14T13:33:59.908Z,20.32
2019-04-14T13:39:01.874Z,18.17
2019-04-14T13:44:05.372Z,21.20
2019-04-14T13:49:08.289Z,21.35
2019-04-14T13:54:09.918Z,21.12
2019-04-14T13:59:11.734Z,15.18
2019-04-14T14:04:13.459Z,19.25
2019-04-14T14:09:15.166Z,22.05
2019-04-14T14:14:21.548Z,18.23
2019-04-14T14:19:23.909Z,19.98
2019-04-14T14:24:44.346Z,19.77
2019-04-14T14:29:46.220Z,18.27
2019-04-14T14:34:48.210Z,19.48
2019-04-14T14:39:49.974Z,17.12
2019-04-14T14:44:59.329Z,17.48
2019-04-14T14:55:10.457Z,17.37
2019-04-14T15:00:27.077Z,17.07
2019-04-14T15:05:28.849Z,14.45
2019-04-14T15:10:30.620Z,18.92
2019-04-14T15:15:32.491Z,17.85
2019-04-14T15:20:34.270Z,19.30
2019-04-14T15:25:35.825Z,17.73
2019-04-14T15:30:38.232Z,21.23
2019-04-14T15:35:39.914Z,22.02
2019-04-14T15:40:42.280Z,17.00
2019-04-14T15:45:44.361Z,20.50
2019-04-14T15:50:45.932Z,17.60
2019-04-14T15:55:47.687Z,21.10
2019-04-14T16:01:08.189Z,19.77
2019-04-14T16:06:09.893Z,21.62
2019-04-14T16:11:19.554Z,28.07
2019-04-14T16:16:23.202Z,18.60
2019-04-14T16:21:25.041Z,19.02
2019-04-14T16:26:45.655Z,17.20
2019-04-14T16:32:07.192Z,20.90
2019-04-14T16:37:08.863Z,22.05
2019-04-14T16:42:12.072Z,21.57
2019-04-14T16:47:13.878Z,25.23
2019-04-14T16:52:15.625Z,24.00
2019-04-14T16:57:36.783Z,27.85
2019-04-14T17:02:38.444Z,23.75
2019-04-14T17:07:39.979Z,27.67
2019-04-14T17:12:41.657Z,25.80
2019-04-14T17:18:02.191Z,24.55
2019-04-14T17:23:22.244Z,25.20
2019-04-14T17:28:29.992Z,28.35
2019-04-14T17:33:34.018Z,27.50
2019-04-14T17:38:48.393Z,30.92
2019-04-14T17:44:04.597Z,29.48
2019-04-14T17:49:13.182Z,27.22
2019-04-14T17:54:34.972Z,25.75
2019-04-14T17:59:38.419Z,29.15
2019-04-14T18:04:48.932Z,25.77
2019-04-14T18:10:01.392Z,21.75
2019-04-14T18:15:12.707Z,26.40
2019-04-14T18:20:19.944Z,23.83
2019-04-14T18:25:21.563Z,24.67
2019-04-14T18:30:26.208Z,22.05
2019-04-14T18:35:41.891Z,23.50
2019-04-14T18:40:51.449Z,20.10
2019-04-14T18:46:11.328Z,20.17
2019-04-14T18:51:16.101Z,18.12
2019-04-14T18:56:36.152Z,17.80
2019-04-14T19:01:39.809Z,18.60
2019-04-14T19:06:41.585Z,19.95
2019-04-14T19:11:48.987Z,18.30
2019-04-14T19:16:51.787Z,16.82
2019-04-14T19:21:53.763Z,15.98
2019-04-14T19:26:55.550Z,17.57
2019-04-14T19:31:57.222Z,18.50
2019-04-14T19:36:58.911Z,15.60
2019-04-14T19:42:00.648Z,17.62
2019-04-14T19:47:02.522Z,15.55
2019-04-14T19:52:04.144Z,17.55
2019-04-14T19:57:05.919Z,15.55
2019-04-14T20:02:07.650Z,15.32
2019-04-14T20:07:09.322Z,14.93
2019-04-14T20:12:12.727Z,15.68
2019-04-14T20:17:20.030Z,14.45
2019-04-14T20:22:26.408Z,14.00
2019-04-14T20:27:30.124Z,17.32
2019-04-14T20:32:33.643Z,15.78
2019-04-14T20:37:35.313Z,16.40
2019-04-14T20:42:36.875Z,15.25
2019-04-14T20:47:38.754Z,15.38
2019-04-14T20:52:40.520Z,15.53
2019-04-14T20:57:42.201Z,15.05
2019-04-14T21:02:46.477Z,14.50
2019-04-14T21:07:50.053Z,15.48
2019-04-14T21:13:05.480Z,19.07
2019-04-14T21:18:18.161Z,16.02
2019-04-14T21:23:28.747Z,13.40
2019-04-14T21:28:48.849Z,13.03
2019-04-14T21:34:04.554Z,13.32
2019-04-14T21:39:25.165Z,14.33
2019-04-14T21:44:26.748Z,14.65
2019-04-14T21:49:28.508Z,13.72
2019-04-14T21:54:30.279Z,14.70
2019-04-14T21:59:50.385Z,12.85
2019-04-14T22:05:06.077Z,14.23
2019-04-14T22:10:09.902Z,12.15
2019-04-14T22:15:13.498Z,12.35
2019-04-14T22:20:15.439Z,13.38
2019-04-14T22:25:16.974Z,12.65
2019-04-14T22:30:18.741Z,11.73
2019-04-14T22:35:20.383Z,13.38
2019-04-14T22:40:22.048Z,13.38
2019-04-14T22:45:23.647Z,13.48
2019-04-14T22:50:25.337Z,12.20
2019-04-14T22:55:27.013Z,12.78
2019-04-14T23:00:45.523Z,12.33
2019-04-14T23:05:59.784Z,12.68
2019-04-14T23:11:19.993Z,11.53
2019-04-14T23:16:26.475Z,13.18
2019-04-14T23:21:34.295Z,12.40
2019-04-14T23:26:35.956Z,12.05
2019-04-14T23:31:37.835Z,12.15
2019-04-14T23:36:39.507Z,11.78
2019-04-14T23:41:41.139Z,11.83
2019-04-14T23:46:42.669Z,10.10
2019-04-14T23:51:44.525Z,11.00
2019-04-14T23:56:46.170Z,10.38
